createdAt,value
2023-05-14T00:00:13.650Z,94838.00
2023-05-14T00:01:13.495Z,94838.00
2023-05-14T00:02:13.513Z,94838.00
2023-05-14T00:03:13.585Z,94840.00
2023-05-14T00:04:14.477Z,94838.00
2023-05-14T00:05:14.169Z,94838.00
2023-05-14T00:06:13.435Z,94838.00
2023-05-14T00:07:13.456Z,94838.00
2023-05-14T00:08:13.521Z,94840.00
2023-05-14T00:09:13.456Z,94838.00
2023-05-14T00:10:13.410Z,94838.00
2023-05-14T00:11:13.453Z,94838.00
2023-05-14T00:12:13.426Z,94840.00
2023-05-14T00:13:13.387Z,94840.00
2023-05-14T00:14:13.430Z,94838.00
2023-05-14T00:15:13.423Z,94838.00
2023-05-14T00:16:13.414Z,94838.00
2023-05-14T00:17:13.354Z,94834.00
2023-05-14T00:18:14.405Z,94830.00
2023-05-14T00:19:13.464Z,94832.00
2023-05-14T00:20:14.206Z,94832.00
2023-05-14T00:21:13.353Z,94834.00
2023-05-14T00:22:13.365Z,94828.00
2023-05-14T00:23:13.316Z,94830.00
2023-05-14T00:24:13.334Z,94830.00
2023-05-14T00:25:13.315Z,94828.00
2023-05-14T00:26:13.303Z,94828.00
2023-05-14T00:27:13.327Z,94824.00
2023-05-14T00:28:13.335Z,94824.00
2023-05-14T00:29:13.371Z,94822.00
2023-05-14T00:30:13.433Z,94824.00
2023-05-14T00:31:13.396Z,94822.00
2023-05-14T00:32:13.432Z,94822.00
2023-05-14T00:33:13.413Z,94822.00
2023-05-14T00:34:13.443Z,94820.00
2023-05-14T00:35:13.443Z,94822.00
2023-05-14T00:36:13.422Z,94824.00
2023-05-14T00:37:13.407Z,94824.00
2023-05-14T00:38:13.397Z,94826.00
2023-05-14T00:39:13.398Z,94826.00
2023-05-14T00:40:13.420Z,94824.00
2023-05-14T00:41:13.409Z,94828.00
2023-05-14T00:42:13.429Z,94826.00
2023-05-14T00:43:13.462Z,94830.00
2023-05-14T00:44:13.377Z,94826.00
2023-05-14T00:45:13.373Z,94826.00
2023-05-14T00:46:13.372Z,94830.00
2023-05-14T00:47:13.349Z,94828.00
2023-05-14T00:48:13.374Z,94828.00
2023-05-14T00:49:13.366Z,94828.00
2023-05-14T00:50:13.676Z,94828.00
2023-05-14T00:51:13.334Z,94826.00
2023-05-14T00:52:13.311Z,94826.00
2023-05-14T00:53:13.331Z,94826.00
2023-05-14T00:54:13.337Z,94826.00
2023-05-14T00:55:13.705Z,94824.00
2023-05-14T00:56:13.279Z,94824.00
2023-05-14T00:57:13.272Z,94822.00
2023-05-14T00:58:13.312Z,94824.00
2023-05-14T00:59:13.331Z,94824.00
2023-05-14T01:00:14.309Z,94826.00
2023-05-14T01:01:13.305Z,94824.00
2023-05-14T01:02:13.280Z,94822.00
2023-05-14T01:03:13.327Z,94824.00
2023-05-14T01:04:13.250Z,94822.00
2023-05-14T01:05:13.660Z,94820.00
2023-05-14T01:06:13.204Z,94822.00
2023-05-14T01:07:13.204Z,94820.00
2023-05-14T01:08:13.221Z,94820.00
2023-05-14T01:09:13.239Z,94820.00
2023-05-14T01:10:13.232Z,94820.00
2023-05-14T01:11:13.196Z,94820.00
2023-05-14T01:12:13.187Z,94820.00
2023-05-14T01:13:13.164Z,94818.00
2023-05-14T01:14:13.144Z,94816.00
2023-05-14T01:15:13.739Z,94816.00
2023-05-14T01:16:13.203Z,94816.00
2023-05-14T01:17:13.162Z,94816.00
2023-05-14T01:18:13.286Z,94816.00
2023-05-14T01:19:13.166Z,94816.00
2023-05-14T01:20:13.199Z,94814.00
2023-05-14T01:21:13.167Z,94814.00
2023-05-14T01:22:13.170Z,94814.00
2023-05-14T01:23:13.213Z,94814.00
2023-05-14T01:24:13.230Z,94816.00
2023-05-14T01:25:13.257Z,94818.00
2023-05-14T01:26:13.262Z,94818.00
2023-05-14T01:27:13.265Z,94818.00
2023-05-14T01:28:13.320Z,94816.00
2023-05-14T01:29:13.333Z,94818.00
2023-05-14T01:30:13.697Z,94816.00
2023-05-14T01:31:13.356Z,94818.00
2023-05-14T01:32:13.488Z,94818.00
2023-05-14T01:33:13.490Z,94820.00
2023-05-14T01:34:13.417Z,94818.00
2023-05-14T01:35:13.526Z,94816.00
2023-05-14T01:36:13.469Z,94818.00
2023-05-14T01:37:13.504Z,94816.00
2023-05-14T01:38:14.192Z,94816.00
2023-05-14T01:39:13.602Z,94820.00
2023-05-14T01:40:13.617Z,94820.00
2023-05-14T01:41:13.587Z,94814.00
2023-05-14T01:42:13.613Z,94816.00
2023-05-14T01:43:13.710Z,94814.00
2023-05-14T01:44:13.682Z,94814.00
2023-05-14T01:45:13.709Z,94814.00
2023-05-14T01:46:13.791Z,94816.00
2023-05-14T01:47:13.750Z,94816.00
2023-05-14T01:48:13.754Z,94816.00
2023-05-14T01:49:13.752Z,94814.00
2023-05-14T01:50:14.232Z,94814.00
2023-05-14T01:51:13.837Z,94814.00
2023-05-14T01:52:13.848Z,94814.00
2023-05-14T01:53:13.906Z,94816.00
2023-05-14T01:54:14.709Z,94814.00
2023-05-14T01:55:14.173Z,94814.00
2023-05-14T01:56:13.948Z,94812.00
2023-05-14T01:57:13.983Z,94814.00
2023-05-14T01:58:13.984Z,94812.00
2023-05-14T01:59:15.177Z,94808.00
2023-05-14T02:00:14.243Z,94812.00
2023-05-14T02:01:14.133Z,94812.00
2023-05-14T02:02:14.118Z,94806.00
2023-05-14T02:03:14.137Z,94808.00
2023-05-14T02:04:14.229Z,94808.00
2023-05-14T02:05:15.209Z,94806.00
2023-05-14T02:06:14.227Z,94804.00
2023-05-14T02:07:14.232Z,94804.00
2023-05-14T02:08:14.286Z,94804.00
2023-05-14T02:09:14.303Z,94803.00
2023-05-14T02:10:14.318Z,94803.00
2023-05-14T02:11:14.334Z,94803.00
2023-05-14T02:12:14.352Z,94801.00
2023-05-14T02:13:14.381Z,94801.00
2023-05-14T02:14:14.399Z,94799.00
2023-05-14T02:15:16.233Z,94797.00
2023-05-14T02:16:14.698Z,94797.00
2023-05-14T02:17:14.496Z,94795.00
2023-05-14T02:18:14.539Z,94797.00
2023-05-14T02:19:14.655Z,94791.00
2023-05-14T02:20:15.764Z,94793.00
2023-05-14T02:21:14.554Z,94793.00
2023-05-14T02:22:14.614Z,94791.00
2023-05-14T02:23:14.613Z,94793.00
2023-05-14T02:24:14.659Z,94793.00
2023-05-14T02:25:14.731Z,94793.00
2023-05-14T02:26:14.673Z,94793.00
2023-05-14T02:27:14.696Z,94793.00
2023-05-14T02:28:14.690Z,94793.00
2023-05-14T02:29:14.744Z,94789.00
2023-05-14T02:30:15.225Z,94791.00
2023-05-14T02:31:15.727Z,94789.00
2023-05-14T02:32:14.814Z,94787.00
2023-05-14T02:33:14.887Z,94789.00
2023-05-14T02:34:14.828Z,94789.00
2023-05-14T02:35:15.238Z,94791.00
2023-05-14T02:36:14.872Z,94789.00
2023-05-14T02:37:14.926Z,94787.00
2023-05-14T02:38:14.901Z,94785.00
2023-05-14T02:39:14.905Z,94785.00
2023-05-14T02:40:14.956Z,94783.00
2023-05-14T02:41:15.199Z,94781.00
2023-05-14T02:42:15.027Z,94781.00
2023-05-14T02:43:15.031Z,94775.00
2023-05-14T02:44:15.697Z,94779.00
2023-05-14T02:45:15.109Z,94773.00
2023-05-14T02:46:15.209Z,94771.00
2023-05-14T02:47:15.166Z,94773.00
2023-05-14T02:48:15.228Z,94771.00
2023-05-14T02:49:15.226Z,94771.00
2023-05-14T02:50:15.270Z,94773.00
2023-05-14T02:51:16.231Z,94771.00
2023-05-14T02:52:15.303Z,94773.00
2023-05-14T02:53:16.198Z,94771.00
2023-05-14T02:54:17.250Z,94771.00
2023-05-14T02:55:17.246Z,94769.00
2023-05-14T02:56:15.740Z,94769.00
2023-05-14T02:57:15.411Z,94771.00
2023-05-14T02:58:17.313Z,94771.00
2023-05-14T02:59:15.478Z,94771.00
2023-05-14T03:00:15.505Z,94769.00
2023-05-14T03:01:15.831Z,94765.00
2023-05-14T03:02:15.636Z,94767.00
2023-05-14T03:03:15.626Z,94769.00
2023-05-14T03:04:15.593Z,94769.00
2023-05-14T03:05:15.599Z,94769.00
2023-05-14T03:06:15.752Z,94767.00
2023-05-14T03:07:15.674Z,94769.00
2023-05-14T03:08:15.665Z,94767.00
2023-05-14T03:09:15.704Z,94765.00
2023-05-14T03:10:15.738Z,94765.00
2023-05-14T03:11:16.214Z,94765.00
2023-05-14T03:12:15.776Z,94767.00
2023-05-14T03:13:15.780Z,94767.00
2023-05-14T03:14:15.845Z,94767.00
2023-05-14T03:15:15.843Z,94769.00
2023-05-14T03:16:16.255Z,94769.00
2023-05-14T03:17:15.931Z,94769.00
2023-05-14T03:18:15.959Z,94767.00
2023-05-14T03:19:16.011Z,94767.00
2023-05-14T03:20:16.010Z,94763.00
2023-05-14T03:21:16.064Z,94763.00
2023-05-14T03:22:16.160Z,94759.00
2023-05-14T03:23:16.097Z,94761.00
2023-05-14T03:24:16.146Z,94757.00
2023-05-14T03:25:16.133Z,94755.00
2023-05-14T03:26:16.215Z,94757.00
2023-05-14T03:27:16.188Z,94757.00
2023-05-14T03:28:16.239Z,94757.00
2023-05-14T03:29:16.266Z,94753.00
2023-05-14T03:30:16.315Z,94755.00
2023-05-14T03:31:16.384Z,94757.00
2023-05-14T03:32:16.386Z,94755.00
2023-05-14T03:33:16.390Z,94755.00
2023-05-14T03:34:16.444Z,94755.00
2023-05-14T03:35:16.466Z,94757.00
2023-05-14T03:36:16.486Z,94755.00
2023-05-14T03:37:16.540Z,94755.00
2023-05-14T03:38:16.536Z,94755.00
2023-05-14T03:39:16.575Z,94759.00
2023-05-14T03:40:17.267Z,94759.00
2023-05-14T03:41:16.756Z,94761.00
2023-05-14T03:42:16.721Z,94759.00
2023-05-14T03:43:16.717Z,94761.00
2023-05-14T03:44:16.723Z,94761.00
2023-05-14T03:45:16.806Z,94761.00
2023-05-14T03:46:17.242Z,94761.00
2023-05-14T03:47:16.812Z,94763.00
2023-05-14T03:48:16.949Z,94763.00
2023-05-14T03:49:16.861Z,94765.00
2023-05-14T03:50:16.880Z,94765.00
2023-05-14T03:51:16.932Z,94767.00
2023-05-14T03:52:16.915Z,94767.00
2023-05-14T03:53:16.957Z,94769.00
2023-05-14T03:54:17.013Z,94771.00
2023-05-14T03:55:17.003Z,94765.00
2023-05-14T03:56:17.258Z,94767.00
2023-05-14T03:57:17.069Z,94769.00
2023-05-14T03:58:17.118Z,94771.00
2023-05-14T03:59:17.164Z,94769.00
2023-05-14T04:00:17.181Z,94769.00
2023-05-14T04:01:17.250Z,94769.00
2023-05-14T04:02:17.250Z,94769.00
2023-05-14T04:03:17.334Z,94767.00
2023-05-14T04:04:17.430Z,94767.00
2023-05-14T04:05:17.382Z,94767.00
2023-05-14T04:06:17.396Z,94765.00
2023-05-14T04:07:17.424Z,94769.00
2023-05-14T04:08:17.461Z,94769.00
2023-05-14T04:09:17.510Z,94767.00
2023-05-14T04:10:17.514Z,94765.00
2023-05-14T04:11:17.586Z,94763.00
2023-05-14T04:12:17.589Z,94765.00
2023-05-14T04:13:17.639Z,94761.00
2023-05-14T04:14:17.700Z,94761.00
2023-05-14T04:15:17.717Z,94759.00
2023-05-14T04:16:17.791Z,94759.00
2023-05-14T04:17:17.777Z,94759.00
2023-05-14T04:18:17.765Z,94759.00
2023-05-14T04:19:18.379Z,94757.00
2023-05-14T04:20:18.760Z,94757.00
2023-05-14T04:21:17.905Z,94753.00
2023-05-14T04:22:17.898Z,94753.00
2023-05-14T04:23:17.966Z,94753.00
2023-05-14T04:24:17.985Z,94753.00
2023-05-14T04:25:18.016Z,94752.00
2023-05-14T04:26:18.083Z,94755.00
2023-05-14T04:27:18.056Z,94752.00
2023-05-14T04:28:18.155Z,94752.00
2023-05-14T04:29:18.123Z,94753.00
2023-05-14T04:30:18.212Z,94752.00
2023-05-14T04:31:18.222Z,94752.00
2023-05-14T04:32:18.275Z,94752.00
2023-05-14T04:33:18.331Z,94753.00
2023-05-14T04:34:18.392Z,94753.00
2023-05-14T04:35:18.413Z,94753.00
2023-05-14T04:36:18.766Z,94753.00
2023-05-14T04:37:18.535Z,94755.00
2023-05-14T04:38:18.517Z,94752.00
2023-05-14T04:39:18.534Z,94755.00
2023-05-14T04:40:18.583Z,94761.00
2023-05-14T04:41:18.734Z,94763.00
2023-05-14T04:42:18.690Z,94765.00
2023-05-14T04:43:18.733Z,94759.00
2023-05-14T04:44:18.710Z,94759.00
2023-05-14T04:45:18.749Z,94763.00
2023-05-14T04:46:19.337Z,94759.00
2023-05-14T04:47:18.864Z,94757.00
2023-05-14T04:48:18.901Z,94757.00
2023-05-14T04:49:18.927Z,94757.00
2023-05-14T04:50:18.952Z,94757.00
2023-05-14T04:51:18.971Z,94759.00
2023-05-14T04:52:19.036Z,94755.00
2023-05-14T04:53:19.029Z,94757.00
2023-05-14T04:54:19.143Z,94753.00
2023-05-14T04:55:19.116Z,94757.00
2023-05-14T04:56:19.203Z,94755.00
2023-05-14T04:57:19.199Z,94759.00
2023-05-14T04:58:19.256Z,94755.00
2023-05-14T04:59:19.268Z,94755.00
2023-05-14T05:00:19.310Z,94757.00
2023-05-14T05:01:19.357Z,94753.00
2023-05-14T05:02:19.366Z,94755.00
2023-05-14T05:03:19.572Z,94753.00
2023-05-14T05:04:19.535Z,94753.00
2023-05-14T05:05:19.509Z,94752.00
2023-05-14T05:06:19.531Z,94757.00
2023-05-14T05:07:19.563Z,94757.00
2023-05-14T05:08:19.653Z,94757.00
2023-05-14T05:09:19.703Z,94763.00
2023-05-14T05:10:19.762Z,94761.00
2023-05-14T05:11:19.821Z,94765.00
2023-05-14T05:12:19.823Z,94765.00
2023-05-14T05:13:19.895Z,94765.00
2023-05-14T05:14:19.949Z,94769.00
2023-05-14T05:15:19.952Z,94767.00
2023-05-14T05:16:20.031Z,94769.00
2023-05-14T05:17:20.029Z,94771.00
2023-05-14T05:18:20.064Z,94767.00
2023-05-14T05:19:24.357Z,94765.00
2023-05-14T05:20:21.143Z,94765.00
2023-05-14T05:21:20.114Z,94761.00
2023-05-14T05:22:20.155Z,94759.00
2023-05-14T05:23:20.068Z,94761.00
2023-05-14T05:24:20.046Z,94761.00
2023-05-14T05:25:20.038Z,94763.00
2023-05-14T05:26:20.075Z,94765.00
2023-05-14T05:27:20.033Z,94767.00
2023-05-14T05:28:20.023Z,94767.00
2023-05-14T05:29:20.006Z,94769.00
2023-05-14T05:30:20.008Z,94769.00
2023-05-14T05:31:20.173Z,94769.00
2023-05-14T05:32:19.982Z,94767.00
2023-05-14T05:33:20.028Z,94763.00
2023-05-14T05:34:20.032Z,94761.00
2023-05-14T05:35:20.046Z,94761.00
2023-05-14T05:36:20.132Z,94761.00
2023-05-14T05:37:20.122Z,94761.00
2023-05-14T05:38:20.203Z,94759.00
2023-05-14T05:39:20.250Z,94761.00
2023-05-14T05:40:20.285Z,94761.00
2023-05-14T05:41:20.322Z,94763.00
2023-05-14T05:42:20.379Z,94761.00
2023-05-14T05:43:20.389Z,94759.00
2023-05-14T05:44:20.455Z,94761.00
2023-05-14T05:45:20.494Z,94755.00
2023-05-14T05:46:20.553Z,94753.00
2023-05-14T05:47:20.604Z,94753.00
2023-05-14T05:48:20.623Z,94753.00
2023-05-14T05:49:20.652Z,94750.00
2023-05-14T05:50:20.757Z,94752.00
2023-05-14T05:51:20.751Z,94752.00
2023-05-14T05:52:20.796Z,94750.00
2023-05-14T05:53:20.810Z,94750.00
2023-05-14T05:54:20.891Z,94752.00
2023-05-14T05:55:20.965Z,94750.00
2023-05-14T05:56:21.158Z,94750.00
2023-05-14T05:57:21.037Z,94750.00
2023-05-14T05:58:21.094Z,94750.00
2023-05-14T05:59:21.114Z,94746.00
2023-05-14T06:00:21.334Z,94746.00
2023-05-14T06:01:21.254Z,94746.00
2023-05-14T06:02:21.347Z,94746.00
2023-05-14T06:03:21.367Z,94744.00
2023-05-14T06:04:21.376Z,94742.00
2023-05-14T06:05:21.429Z,94740.00
2023-05-14T06:06:21.471Z,94740.00
2023-05-14T06:07:21.477Z,94738.00
2023-05-14T06:08:21.549Z,94742.00
2023-05-14T06:09:21.586Z,94742.00
2023-05-14T06:10:21.842Z,94742.00
2023-05-14T06:11:21.646Z,94740.00
2023-05-14T06:12:21.699Z,94740.00
2023-05-14T06:13:21.761Z,94742.00
2023-05-14T06:14:21.850Z,94744.00
2023-05-14T06:15:21.817Z,94744.00
2023-05-14T06:16:21.913Z,94746.00
2023-05-14T06:17:21.965Z,94744.00
2023-05-14T06:18:22.011Z,94742.00
2023-05-14T06:19:22.013Z,94740.00
2023-05-14T06:20:22.312Z,94736.00
2023-05-14T06:21:22.280Z,94738.00
2023-05-14T06:22:22.149Z,94734.00
2023-05-14T06:23:22.198Z,94736.00
2023-05-14T06:24:22.244Z,94734.00
2023-05-14T06:25:22.292Z,94734.00
2023-05-14T06:26:22.810Z,94734.00
2023-05-14T06:27:22.342Z,94736.00
2023-05-14T06:28:22.411Z,94734.00
2023-05-14T06:29:22.456Z,94732.00
2023-05-14T06:30:22.732Z,94730.00
2023-05-14T06:31:22.668Z,94728.00
2023-05-14T06:32:22.715Z,94728.00
2023-05-14T06:33:22.626Z,94728.00
2023-05-14T06:34:22.667Z,94728.00
2023-05-14T06:35:22.698Z,94726.00
2023-05-14T06:36:22.743Z,94726.00
2023-05-14T06:37:22.807Z,94726.00
2023-05-14T06:38:22.771Z,94724.00
2023-05-14T06:39:22.814Z,94722.00
2023-05-14T06:40:23.359Z,94724.00
2023-05-14T06:41:22.895Z,94722.00
2023-05-14T06:42:22.961Z,94722.00
2023-05-14T06:43:23.017Z,94724.00
2023-05-14T06:44:23.033Z,94724.00
2023-05-14T06:45:23.059Z,94724.00
2023-05-14T06:46:23.282Z,94726.00
2023-05-14T06:47:23.220Z,94726.00
2023-05-14T06:48:23.314Z,94728.00
2023-05-14T06:49:23.211Z,94726.00
2023-05-14T06:50:23.507Z,94726.00
2023-05-14T06:51:23.300Z,94730.00
2023-05-14T06:52:23.379Z,94726.00
2023-05-14T06:53:23.381Z,94722.00
2023-05-14T06:54:23.430Z,94722.00
2023-05-14T06:55:23.446Z,94722.00
2023-05-14T06:56:23.487Z,94724.00
2023-05-14T06:57:23.553Z,94724.00
2023-05-14T06:58:23.567Z,94724.00
2023-05-14T06:59:23.611Z,94726.00
2023-05-14T07:00:23.820Z,94728.00
2023-05-14T07:01:23.716Z,94728.00
2023-05-14T07:02:23.786Z,94728.00
2023-05-14T07:03:23.796Z,94724.00
2023-05-14T07:04:23.826Z,94724.00
2023-05-14T07:05:23.863Z,94724.00
2023-05-14T07:06:23.957Z,94718.00
2023-05-14T07:07:23.966Z,94720.00
2023-05-14T07:08:24.004Z,94718.00
2023-05-14T07:09:24.043Z,94716.00
2023-05-14T07:10:24.231Z,94714.00
2023-05-14T07:11:24.100Z,94716.00
2023-05-14T07:12:24.226Z,94714.00
2023-05-14T07:13:24.908Z,94714.00
2023-05-14T07:14:24.239Z,94714.00
2023-05-14T07:15:24.259Z,94716.00
2023-05-14T07:16:24.324Z,94714.00
2023-05-14T07:17:24.467Z,94714.00
2023-05-14T07:18:24.395Z,94716.00
2023-05-14T07:19:24.434Z,94712.00
2023-05-14T07:20:24.712Z,94712.00
2023-05-14T07:21:24.539Z,94710.00
2023-05-14T07:22:24.530Z,94710.00
2023-05-14T07:23:24.589Z,94708.00
2023-05-14T07:24:24.663Z,94706.00
2023-05-14T07:25:24.663Z,94704.00
2023-05-14T07:26:24.733Z,94699.00
2023-05-14T07:27:24.775Z,94699.00
2023-05-14T07:28:24.836Z,94693.00
2023-05-14T07:29:24.832Z,94693.00
2023-05-14T07:30:25.249Z,94691.00
2023-05-14T07:31:24.997Z,94689.00
2023-05-14T07:32:25.150Z,94689.00
2023-05-14T07:33:25.026Z,94689.00
2023-05-14T07:34:25.077Z,94687.00
2023-05-14T07:35:25.112Z,94687.00
2023-05-14T07:36:25.183Z,94683.00
2023-05-14T07:37:25.231Z,94681.00
2023-05-14T07:38:25.320Z,94679.00
2023-05-14T07:39:25.319Z,94677.00
2023-05-14T07:40:25.564Z,94677.00
2023-05-14T07:41:25.394Z,94673.00
2023-05-14T07:42:35.223Z,94673.00
2023-05-14T07:43:26.431Z,94673.00
2023-05-14T07:44:25.455Z,94671.00
2023-05-14T07:45:25.452Z,94669.00
2023-05-14T07:46:25.389Z,94669.00
2023-05-14T07:47:25.500Z,94667.00
2023-05-14T07:48:25.428Z,94665.00
2023-05-14T07:49:25.385Z,94665.00
2023-05-14T07:50:25.563Z,94667.00
2023-05-14T07:51:25.836Z,94663.00
2023-05-14T07:52:25.362Z,94665.00
2023-05-14T07:53:25.344Z,94665.00
2023-05-14T07:54:25.351Z,94665.00
2023-05-14T07:55:25.326Z,94665.00
2023-05-14T07:56:25.340Z,94663.00
2023-05-14T07:57:25.400Z,94661.00
2023-05-14T07:58:25.443Z,94663.00
2023-05-14T07:59:25.468Z,94663.00
2023-05-14T08:00:25.734Z,94659.00
2023-05-14T08:01:25.515Z,94659.00
2023-05-14T08:02:25.865Z,94657.00
2023-05-14T08:03:25.690Z,94655.00
2023-05-14T08:04:25.676Z,94653.00
2023-05-14T08:05:25.706Z,94651.00
2023-05-14T08:06:25.732Z,94653.00
2023-05-14T08:07:25.779Z,94649.00
2023-05-14T08:08:25.804Z,94647.00
2023-05-14T08:09:25.882Z,94647.00
2023-05-14T08:10:26.074Z,94646.00
2023-05-14T08:11:25.937Z,94646.00
2023-05-14T08:12:26.018Z,94647.00
2023-05-14T08:13:26.008Z,94644.00
2023-05-14T08:14:26.104Z,94642.00
2023-05-14T08:15:27.734Z,94642.00
2023-05-14T08:16:26.173Z,94638.00
2023-05-14T08:17:26.215Z,94638.00
2023-05-14T08:18:26.244Z,94634.00
2023-05-14T08:19:26.246Z,94630.00
2023-05-14T08:20:26.610Z,94632.00
2023-05-14T08:21:26.333Z,94630.00
2023-05-14T08:22:26.392Z,94632.00
2023-05-14T08:23:26.399Z,94628.00
2023-05-14T08:24:26.423Z,94632.00
2023-05-14T08:25:26.460Z,94630.00
2023-05-14T08:26:26.463Z,94630.00
2023-05-14T08:27:26.528Z,94630.00
2023-05-14T08:28:26.575Z,94628.00
2023-05-14T08:29:26.618Z,94626.00
2023-05-14T08:30:26.984Z,94630.00
2023-05-14T08:31:26.813Z,94626.00
2023-05-14T08:32:26.803Z,94626.00
2023-05-14T08:33:26.741Z,94624.00
2023-05-14T08:34:26.784Z,94624.00
2023-05-14T08:35:26.811Z,94624.00
2023-05-14T08:36:26.885Z,94624.00
2023-05-14T08:37:26.899Z,94620.00
2023-05-14T08:38:26.936Z,94620.00
2023-05-14T08:39:26.933Z,94622.00
2023-05-14T08:40:27.201Z,94624.00
2023-05-14T08:41:27.005Z,94622.00
2023-05-14T08:42:27.332Z,94622.00
2023-05-14T08:43:27.058Z,94624.00
2023-05-14T08:44:27.086Z,94620.00
2023-05-14T08:45:27.100Z,94620.00
2023-05-14T08:46:27.113Z,94620.00
2023-05-14T08:47:27.201Z,94618.00
2023-05-14T08:48:27.276Z,94618.00
2023-05-14T08:49:27.254Z,94618.00
2023-05-14T08:50:27.575Z,94608.00
2023-05-14T08:51:27.256Z,94606.00
2023-05-14T08:52:27.294Z,94608.00
2023-05-14T08:53:27.311Z,94606.00
2023-05-14T08:54:27.347Z,94604.00
2023-05-14T08:55:27.374Z,94606.00
2023-05-14T08:56:27.409Z,94606.00
2023-05-14T08:57:27.457Z,94606.00
2023-05-14T08:58:27.437Z,94604.00
2023-05-14T08:59:27.507Z,94602.00
2023-05-14T09:00:27.737Z,94601.00
2023-05-14T09:01:27.581Z,94599.00
2023-05-14T09:02:27.869Z,94602.00
2023-05-14T09:03:27.614Z,94602.00
2023-05-14T09:04:27.619Z,94601.00
2023-05-14T09:05:27.666Z,94597.00
2023-05-14T09:06:27.672Z,94597.00
2023-05-14T09:07:27.701Z,94601.00
2023-05-14T09:08:27.723Z,94601.00
2023-05-14T09:09:27.770Z,94601.00
2023-05-14T09:10:27.906Z,94597.00
2023-05-14T09:11:27.820Z,94599.00
2023-05-14T09:12:27.849Z,94599.00
2023-05-14T09:13:28.382Z,94599.00
2023-05-14T09:14:27.859Z,94597.00
2023-05-14T09:15:27.851Z,94597.00
2023-05-14T09:16:27.921Z,94601.00
2023-05-14T09:17:28.042Z,94597.00
2023-05-14T09:18:27.974Z,94595.00
2023-05-14T09:19:27.965Z,94595.00
2023-05-14T09:20:28.316Z,94591.00
2023-05-14T09:21:28.042Z,94597.00
2023-05-14T09:22:28.046Z,94589.00
2023-05-14T09:23:28.024Z,94585.00
2023-05-14T09:24:28.078Z,94589.00
2023-05-14T09:25:28.077Z,94587.00
2023-05-14T09:26:28.145Z,94585.00
2023-05-14T09:27:28.147Z,94583.00
2023-05-14T09:28:28.168Z,94583.00
2023-05-14T09:29:28.189Z,94581.00
2023-05-14T09:30:28.281Z,94585.00
2023-05-14T09:31:28.339Z,94577.00
2023-05-14T09:32:28.280Z,94579.00
2023-05-14T09:33:28.247Z,94579.00
2023-05-14T09:34:28.281Z,94575.00
2023-05-14T09:35:28.340Z,94575.00
2023-05-14T09:36:28.345Z,94571.00
2023-05-14T09:37:28.355Z,94569.00
2023-05-14T09:38:28.354Z,94569.00
2023-05-14T09:39:28.401Z,94567.00
2023-05-14T09:40:28.795Z,94565.00
2023-05-14T09:41:28.421Z,94561.00
2023-05-14T09:42:28.859Z,94563.00
2023-05-14T09:43:28.465Z,94555.00
2023-05-14T09:44:28.515Z,94555.00
2023-05-14T09:45:28.503Z,94553.00
2023-05-14T09:46:28.526Z,94549.00
2023-05-14T09:47:28.706Z,94547.00
2023-05-14T09:48:28.574Z,94547.00
2023-05-14T09:49:28.557Z,94546.00
2023-05-14T09:50:28.540Z,94542.00
2023-05-14T09:51:28.601Z,94542.00
2023-05-14T09:52:28.605Z,94540.00
2023-05-14T09:53:28.642Z,94540.00
2023-05-14T09:54:28.635Z,94542.00
2023-05-14T09:55:28.638Z,94538.00
2023-05-14T09:56:28.692Z,94540.00
2023-05-14T09:57:29.353Z,94540.00
2023-05-14T09:58:28.715Z,94538.00
2023-05-14T09:59:28.744Z,94540.00
2023-05-14T10:00:28.742Z,94536.00
2023-05-14T10:01:28.754Z,94534.00
2023-05-14T10:02:28.868Z,94534.00
2023-05-14T10:03:28.809Z,94536.00
2023-05-14T10:04:28.941Z,94536.00
2023-05-14T10:05:28.852Z,94534.00
2023-05-14T10:06:28.849Z,94534.00
2023-05-14T10:07:28.855Z,94534.00
2023-05-14T10:08:28.894Z,94530.00
2023-05-14T10:09:28.941Z,94532.00
2023-05-14T10:10:29.151Z,94532.00
2023-05-14T10:11:28.963Z,94534.00
2023-05-14T10:12:28.966Z,94532.00
2023-05-14T10:13:28.968Z,94528.00
2023-05-14T10:14:29.007Z,94532.00
2023-05-14T10:15:28.979Z,94530.00
2023-05-14T10:16:29.081Z,94530.00
2023-05-14T10:17:29.091Z,94530.00
2023-05-14T10:18:29.047Z,94532.00
2023-05-14T10:19:29.142Z,94528.00
2023-05-14T10:20:29.097Z,94528.00
2023-05-14T10:21:29.096Z,94528.00
2023-05-14T10:22:29.144Z,94524.00
2023-05-14T10:23:29.143Z,94522.00
2023-05-14T10:24:29.192Z,94526.00
2023-05-14T10:25:29.206Z,94526.00
2023-05-14T10:26:29.268Z,94522.00
2023-05-14T10:27:29.270Z,94518.00
2023-05-14T10:28:29.224Z,94518.00
2023-05-14T10:29:29.293Z,94514.00
2023-05-14T10:30:29.293Z,94516.00
2023-05-14T10:31:29.364Z,94514.00
2023-05-14T10:32:29.306Z,94514.00
2023-05-14T10:33:29.301Z,94512.00
2023-05-14T10:34:29.339Z,94510.00
2023-05-14T10:35:29.362Z,94510.00
2023-05-14T10:36:29.355Z,94510.00
2023-05-14T10:37:29.383Z,94510.00
2023-05-14T10:38:29.425Z,94514.00
2023-05-14T10:39:29.381Z,94512.00
2023-05-14T10:40:29.385Z,94508.00
2023-05-14T10:41:29.411Z,94512.00
2023-05-14T10:42:29.437Z,94508.00
2023-05-14T10:43:29.447Z,94508.00
2023-05-14T10:44:29.446Z,94508.00
2023-05-14T10:45:29.497Z,94510.00
2023-05-14T10:46:29.516Z,94508.00
2023-05-14T10:47:29.867Z,94506.00
2023-05-14T10:48:29.559Z,94506.00
2023-05-14T10:49:42.884Z,94506.00
2023-05-14T10:50:30.496Z,94506.00
2023-05-14T10:51:29.552Z,94506.00
2023-05-14T10:52:29.498Z,94506.00
2023-05-14T10:53:29.538Z,94504.00
2023-05-14T10:54:29.483Z,94504.00
2023-05-14T10:55:29.493Z,94500.00
2023-05-14T10:56:29.476Z,94496.00
2023-05-14T10:57:29.540Z,94494.00
2023-05-14T10:58:29.459Z,94492.00
2023-05-14T10:59:29.472Z,94489.00
2023-05-14T11:00:30.373Z,94487.00
2023-05-14T11:01:29.536Z,94483.00
2023-05-14T11:02:29.915Z,94485.00
2023-05-14T11:03:29.581Z,94481.00
2023-05-14T11:04:29.457Z,94479.00
2023-05-14T11:05:29.421Z,94473.00
2023-05-14T11:06:29.434Z,94477.00
2023-05-14T11:07:29.408Z,94475.00
2023-05-14T11:08:29.565Z,94473.00
2023-05-14T11:09:29.394Z,94473.00
2023-05-14T11:10:29.399Z,94469.00
2023-05-14T11:11:29.358Z,94471.00
2023-05-14T11:12:29.396Z,94469.00
2023-05-14T11:13:29.387Z,94469.00
2023-05-14T11:14:29.413Z,94469.00
2023-05-14T11:15:29.421Z,94467.00
2023-05-14T11:16:29.385Z,94465.00
2023-05-14T11:17:29.407Z,94465.00
2023-05-14T11:18:29.396Z,94463.00
2023-05-14T11:19:29.341Z,94463.00
2023-05-14T11:20:29.343Z,94461.00
2023-05-14T11:21:29.391Z,94459.00
2023-05-14T11:22:29.868Z,94455.00
2023-05-14T11:23:29.305Z,94459.00
2023-05-14T11:24:29.276Z,94457.00
2023-05-14T11:25:29.291Z,94457.00
2023-05-14T11:26:29.302Z,94455.00
2023-05-14T11:27:29.300Z,94453.00
2023-05-14T11:28:29.277Z,94453.00
2023-05-14T11:29:29.259Z,94453.00
2023-05-14T11:30:29.268Z,94453.00
2023-05-14T11:31:29.297Z,94451.00
2023-05-14T11:32:29.434Z,94455.00
2023-05-14T11:33:29.255Z,94453.00
2023-05-14T11:34:29.247Z,94455.00
2023-05-14T11:35:29.237Z,94451.00
2023-05-14T11:36:29.243Z,94453.00
2023-05-14T11:37:29.254Z,94449.00
2023-05-14T11:38:29.248Z,94447.00
2023-05-14T11:39:29.273Z,94449.00
2023-05-14T11:40:29.223Z,94447.00
2023-05-14T11:41:29.261Z,94447.00
2023-05-14T11:42:29.259Z,94447.00
2023-05-14T11:43:29.376Z,94447.00
2023-05-14T11:44:29.282Z,94447.00